Aeroclub de GuadalajaraInformación meteorológica

Información de METAR

 

LEMD - Madrid / Barajas
Distancia desde la estación: SO 49km
Actualización: 23/09/2018 07:00
Despejado
Despejado
 Viento del N
Viento: N 6 km/h
Temperatura: 17°C
Rocío: 8°C
Humedad: 56%
Barómetro: 1024 hPa
Resumen: Despejado
Visibilidad: más de 10 km
2018/09/23 05:00 LEMD 230500Z 36003KT CAVOK 17/08 Q1024 NOSIG
LECV - Madrid / Colmenar Viejo
Distancia desde la estación: OSO 47km
Actualización: 22/09/2018 20:00
NO actualizado
Despejado
Despejado
 Viento del N
Viento: N 6 km/h
Temperatura: 27°C
Rocío: 6°C
Humedad: 26%
Barómetro: 1025 hPa
Resumen: Despejado
Visibilidad: más de 10 km
2018/09/22 18:00 LECV 221800Z 01003KT CAVOK 27/06 Q1025
LETO - Madrid / Torrejon
Distancia desde la estación: SSO 45km
Actualización: 23/09/2018 07:00
Despejado
Despejado
 Viento del ENE
Viento: ENE 6 km/h
Temperatura: 15°C
Rocío: 10°C
Humedad: 72%
Barómetro: 1024 hPa
Resumen: Despejado
Visibilidad: más de 10 km
2018/09/23 05:00 LETO 230500Z 06003KT CAVOK 15/10 Q1024 NOSIG
 
LEVS - Madrid / Cuatro vientos
Distancia desde la estación: SO 70km
Actualización: 23/09/2018 07:00
Despejado
Despejado
 Viento del NNE
Viento: NNE 6 km/h
Temperatura: 21°C
Rocío: 9°C
Humedad: 46%
Barómetro: 1025 hPa
Resumen: Despejado
Visibilidad: más de 10 km
2018/09/23 05:00 LEVS 230500Z 03003KT 350V070 CAVOK 21/09 Q1025
LEGT - Madrid / Getafe
Distancia desde la estación: SSO 74km
Actualización: 23/09/2018 07:00
Despejado
Despejado
 Viento del varies
Viento: varies 2 km/h
Temperatura: 19°C
Rocío: 10°C
Humedad: 56%
Barómetro: 1024 hPa
Resumen: Despejado
Visibilidad: más de 10 km
2018/09/23 05:00 LEGT 230500Z VRB01KT CAVOK 19/10 Q1024
LEBL - Barcelona / Aeropuerto
Distancia desde la estación: E 447km
Actualización: 23/09/2018 07:00
Despejado
Despejado
 Viento del NNO
Viento: NNO 13 km/h
Temperatura: 22°C
Rocío: 20°C
Humedad: 88%
Barómetro: 1021 hPa
Resumen: Despejado
Visibilidad: más de 10 km
2018/09/23 05:00 LEBL 230500Z 33007KT CAVOK 22/20 Q1021 NOSIG
 
LEVC - Valencia /Aeropuerto
Distancia desde la estación: ESE 280km
Actualización: 23/09/2018 07:00
Despejado
Despejado
 Viento del calm
Viento: Calma
Temperatura: 22°C
Rocío: 19°C
Humedad: 83%
Barómetro: 1021 hPa
Resumen: Despejado
Visibilidad: más de 10 km
2018/09/23 05:00 LEVC 230500Z 00000KT CAVOK 22/19 Q1021 NOSIG
LEZG - Zaragoza / Aeropuerto
Distancia desde la estación: ENE 206km
Actualización: 23/09/2018 07:00
Despejado
Despejado
 Viento del O
Viento: O 11 km/h
Temperatura: 18°C
Rocío: 14°C
Humedad: 78%
Barómetro: 1023 hPa
Resumen: Despejado
Visibilidad: más de 10 km
2018/09/23 05:00 LEZG 230500Z 28006KT CAVOK 18/14 Q1023
LEGR - Granada / Aeropuerto
Distancia desde la estación: S 411km
Actualización: 23/09/2018 07:00
Despejado
Despejado
 Viento del calm
Viento: Calma
Temperatura: 16°C
Rocío: 14°C
Humedad: 88%
Barómetro: 1024 hPa
Resumen: Despejado
Visibilidad: más de 10 km
2018/09/23 05:00 LEGR 230500Z 00000KT CAVOK 16/14 Q1024